Terminal Aerodrome Forecast
Issued by NWS

Home | Current Version | Previous Version | Text Only | Print | Product List | Glossary On
Versions: 1 2 3 4 5 6 7 8 9 10 11 12 13 14 15 16
000
FTUS46 KSTO 031500 AAA
TAFSCK
TAF AMD
KSCK 031501Z 0315/0412 VRB04KT P6SM SKC
     FM032000 32013KT P6SM SKC
     FM040200 VRB03KT P6SM SKC=

USA.gov is the U.S. government's official web portal to all federal, state and local government web resources and services.